sensor_id;sensor_type;location;lat;lon;timestamp;temperature;humidity
6106;DHT22;3083;51.508;7.966;2022-12-29T00:00:19;9.90;99.90
6106;DHT22;3083;51.508;7.966;2022-12-29T00:02:46;9.90;99.90
6106;DHT22;3083;51.508;7.966;2022-12-29T00:05:14;9.90;99.90
6106;DHT22;3083;51.508;7.966;2022-12-29T00:07:41;9.90;99.90
6106;DHT22;3083;51.508;7.966;2022-12-29T00:10:08;10.00;99.90
6106;DHT22;3083;51.508;7.966;2022-12-29T00:12:35;10.00;99.90
6106;DHT22;3083;51.508;7.966;2022-12-29T00:15:19;10.00;99.90
6106;DHT22;3083;51.508;7.966;2022-12-29T00:18:04;10.10;99.90
6106;DHT22;3083;51.508;7.966;2022-12-29T00:20:34;10.10;99.90
6106;DHT22;3083;51.508;7.966;2022-12-29T00:23:20;10.10;99.90
6106;DHT22;3083;51.508;7.966;2022-12-29T00:26:10;10.20;99.90
6106;DHT22;3083;51.508;7.966;2022-12-29T00:28:56;10.20;99.90
6106;DHT22;3083;51.508;7.966;2022-12-29T00:31:40;10.20;99.90
6106;DHT22;3083;51.508;7.966;2022-12-29T00:34:25;10.20;99.90
6106;DHT22;3083;51.508;7.966;2022-12-29T00:37:10;10.20;99.90
6106;DHT22;3083;51.508;7.966;2022-12-29T00:39:37;10.20;99.90
6106;DHT22;3083;51.508;7.966;2022-12-29T00:42:22;10.20;99.90
6106;DHT22;3083;51.508;7.966;2022-12-29T00:45:06;10.30;99.90
6106;DHT22;3083;51.508;7.966;2022-12-29T00:47:33;10.30;99.90
6106;DHT22;3083;51.508;7.966;2022-12-29T00:50:00;10.30;99.90
6106;DHT22;3083;51.508;7.966;2022-12-29T00:52:28;10.30;99.90
6106;DHT22;3083;51.508;7.966;2022-12-29T00:54:54;10.30;99.90
6106;DHT22;3083;51.508;7.966;2022-12-29T00:57:21;10.40;99.90
6106;DHT22;3083;51.508;7.966;2022-12-29T00:59:48;10.40;99.90
6106;DHT22;3083;51.508;7.966;2022-12-29T01:02:15;10.40;99.90
6106;DHT22;3083;51.508;7.966;2022-12-29T01:04:42;10.40;99.90
6106;DHT22;3083;51.508;7.966;2022-12-29T01:07:09;10.40;99.90
6106;DHT22;3083;51.508;7.966;2022-12-29T01:09:37;10.40;99.90
6106;DHT22;3083;51.508;7.966;2022-12-29T01:12:22;10.40;99.90
6106;DHT22;3083;51.508;7.966;2022-12-29T01:15:03;10.50;99.90
6106;DHT22;3083;51.508;7.966;2022-12-29T01:17:30;10.50;99.90
6106;DHT22;3083;51.508;7.966;2022-12-29T01:19:57;10.50;99.90
6106;DHT22;3083;51.508;7.966;2022-12-29T01:22:24;10.50;99.90
6106;DHT22;3083;51.508;7.966;2022-12-29T01:24:53;10.50;99.90
6106;DHT22;3083;51.508;7.966;2022-12-29T01:27:20;10.50;99.90
6106;DHT22;3083;51.508;7.966;2022-12-29T01:29:47;10.50;99.90
6106;DHT22;3083;51.508;7.966;2022-12-29T01:32:14;10.50;99.90
6106;DHT22;3083;51.508;7.966;2022-12-29T01:34:40;10.50;99.90
6106;DHT22;3083;51.508;7.966;2022-12-29T01:37:08;10.60;99.90
6106;DHT22;3083;51.508;7.966;2022-12-29T01:39:35;10.60;99.90
6106;DHT22;3083;51.508;7.966;2022-12-29T01:42:04;10.60;99.90
6106;DHT22;3083;51.508;7.966;2022-12-29T01:44:54;10.60;99.90
6106;DHT22;3083;51.508;7.966;2022-12-29T01:47:29;10.60;99.90
6106;DHT22;3083;51.508;7.966;2022-12-29T01:49:58;10.60;99.90
6106;DHT22;3083;51.508;7.966;2022-12-29T01:52:31;10.60;99.90
6106;DHT22;3083;51.508;7.966;2022-12-29T01:54:59;10.60;99.90
6106;DHT22;3083;51.508;7.966;2022-12-29T01:57:31;10.60;99.90
6106;DHT22;3083;51.508;7.966;2022-12-29T02:00:01;10.60;99.90
6106;DHT22;3083;51.508;7.966;2022-12-29T02:02:33;10.60;99.90
6106;DHT22;3083;51.508;7.966;2022-12-29T02:05:03;10.70;99.90
6106;DHT22;3083;51.508;7.966;2022-12-29T02:07:32;10.70;99.90
6106;DHT22;3083;51.508;7.966;2022-12-29T02:10:00;10.70;99.90
6106;DHT22;3083;51.508;7.966;2022-12-29T02:12:29;10.60;99.90
6106;DHT22;3083;51.508;7.966;2022-12-29T02:14:59;10.60;99.90
6106;DHT22;3083;51.508;7.966;2022-12-29T02:17:38;10.60;99.90
6106;DHT22;3083;51.508;7.966;2022-12-29T02:20:37;10.60;99.90
6106;DHT22;3083;51.508;7.966;2022-12-29T02:23:28;10.60;99.90
6106;DHT22;3083;51.508;7.966;2022-12-29T02:26:16;10.60;99.90
6106;DHT22;3083;51.508;7.966;2022-12-29T02:29:21;10.60;99.90
6106;DHT22;3083;51.508;7.966;2022-12-29T02:31:59;10.70;99.90
6106;DHT22;3083;51.508;7.966;2022-12-29T02:34:35;10.70;99.90
6106;DHT22;3083;51.508;7.966;2022-12-29T02:37:09;10.70;99.90
6106;DHT22;3083;51.508;7.966;2022-12-29T02:39:43;10.70;99.90
6106;DHT22;3083;51.508;7.966;2022-12-29T02:42:21;10.80;99.90
6106;DHT22;3083;51.508;7.966;2022-12-29T02:44:55;10.80;99.90
6106;DHT22;3083;51.508;7.966;2022-12-29T02:47:33;10.80;99.90
6106;DHT22;3083;51.508;7.966;2022-12-29T02:50:06;10.70;99.90
6106;DHT22;3083;51.508;7.966;2022-12-29T02:52:38;10.80;99.90
6106;DHT22;3083;51.508;7.966;2022-12-29T02:55:07;10.80;99.90
6106;DHT22;3083;51.508;7.966;2022-12-29T02:57:35;10.80;99.90
6106;DHT22;3083;51.508;7.966;2022-12-29T03:00:05;10.80;99.90
6106;DHT22;3083;51.508;7.966;2022-12-29T03:08:38;10.80;99.90
6106;DHT22;3083;51.508;7.966;2022-12-29T03:11:09;10.70;99.90
6106;DHT22;3083;51.508;7.966;2022-12-29T03:14:02;10.70;99.90
6106;DHT22;3083;51.508;7.966;2022-12-29T03:16:53;10.70;99.90
6106;DHT22;3083;51.508;7.966;2022-12-29T03:19:28;10.80;99.90
6106;DHT22;3083;51.508;7.966;2022-12-29T03:21:59;10.80;99.90
6106;DHT22;3083;51.508;7.966;2022-12-29T03:24:47;10.90;99.90
6106;DHT22;3083;51.508;7.966;2022-12-29T03:27:19;10.90;99.90
6106;DHT22;3083;51.508;7.966;2022-12-29T03:29:50;11.00;99.90
6106;DHT22;3083;51.508;7.966;2022-12-29T03:32:23;11.00;99.90
6106;DHT22;3083;51.508;7.966;2022-12-29T03:34:54;10.90;99.90
6106;DHT22;3083;51.508;7.966;2022-12-29T03:37:26;11.00;99.90
6106;DHT22;3083;51.508;7.966;2022-12-29T03:39:54;11.00;99.90
6106;DHT22;3083;51.508;7.966;2022-12-29T03:42:25;11.00;99.90
6106;DHT22;3083;51.508;7.966;2022-12-29T03:44:54;11.00;99.90
6106;DHT22;3083;51.508;7.966;2022-12-29T03:47:23;11.00;99.90
6106;DHT22;3083;51.508;7.966;2022-12-29T03:49:50;10.90;99.90
6106;DHT22;3083;51.508;7.966;2022-12-29T03:52:19;11.00;99.90
6106;DHT22;3083;51.508;7.966;2022-12-29T03:54:46;11.00;99.90
6106;DHT22;3083;51.508;7.966;2022-12-29T03:57:13;11.00;99.90
6106;DHT22;3083;51.508;7.966;2022-12-29T03:59:40;11.00;99.90
6106;DHT22;3083;51.508;7.966;2022-12-29T04:02:07;11.00;99.90
6106;DHT22;3083;51.508;7.966;2022-12-29T04:04:34;11.00;99.90
6106;DHT22;3083;51.508;7.966;2022-12-29T04:07:01;11.00;99.90
6106;DHT22;3083;51.508;7.966;2022-12-29T04:09:31;11.00;99.90
6106;DHT22;3083;51.508;7.966;2022-12-29T04:11:58;11.00;99.90
6106;DHT22;3083;51.508;7.966;2022-12-29T04:14:25;11.00;99.90
6106;DHT22;3083;51.508;7.966;2022-12-29T04:16:52;11.00;99.90
6106;DHT22;3083;51.508;7.966;2022-12-29T04:19:19;11.00;99.90
6106;DHT22;3083;51.508;7.966;2022-12-29T04:21:46;11.00;99.90
6106;DHT22;3083;51.508;7.966;2022-12-29T04:24:13;10.90;99.90
6106;DHT22;3083;51.508;7.966;2022-12-29T04:26:42;10.90;99.90
6106;DHT22;3083;51.508;7.966;2022-12-29T04:29:09;10.90;99.90
6106;DHT22;3083;51.508;7.966;2022-12-29T04:31:36;10.80;99.90
6106;DHT22;3083;51.508;7.966;2022-12-29T04:34:03;10.80;99.90
6106;DHT22;3083;51.508;7.966;2022-12-29T04:36:30;10.70;99.90
6106;DHT22;3083;51.508;7.966;2022-12-29T04:38:57;10.80;99.90
6106;DHT22;3083;51.508;7.966;2022-12-29T04:41:24;10.70;99.90
6106;DHT22;3083;51.508;7.966;2022-12-29T04:43:52;10.70;99.90
6106;DHT22;3083;51.508;7.966;2022-12-29T04:46:19;10.70;99.90
6106;DHT22;3083;51.508;7.966;2022-12-29T04:48:46;10.70;99.90
6106;DHT22;3083;51.508;7.966;2022-12-29T04:51:13;10.70;99.90
6106;DHT22;3083;51.508;7.966;2022-12-29T04:53:40;10.70;99.90
6106;DHT22;3083;51.508;7.966;2022-12-29T04:56:07;10.60;99.90
6106;DHT22;3083;51.508;7.966;2022-12-29T04:58:34;10.60;99.90
6106;DHT22;3083;51.508;7.966;2022-12-29T05:01:03;10.60;99.90
6106;DHT22;3083;51.508;7.966;2022-12-29T05:03:30;10.50;99.90
6106;DHT22;3083;51.508;7.966;2022-12-29T05:05:57;10.40;99.90
6106;DHT22;3083;51.508;7.966;2022-12-29T05:08:24;10.40;99.90
6106;DHT22;3083;51.508;7.966;2022-12-29T05:10:51;10.40;99.90
6106;DHT22;3083;51.508;7.966;2022-12-29T05:13:18;10.50;99.90
6106;DHT22;3083;51.508;7.966;2022-12-29T05:15:50;10.50;99.90
6106;DHT22;3083;51.508;7.966;2022-12-29T05:18:19;10.60;99.90
6106;DHT22;3083;51.508;7.966;2022-12-29T05:20:46;10.70;99.90
6106;DHT22;3083;51.508;7.966;2022-12-29T05:23:13;10.70;99.90
6106;DHT22;3083;51.508;7.966;2022-12-29T05:25:41;10.80;99.90
6106;DHT22;3083;51.508;7.966;2022-12-29T05:28:08;10.90;99.90
6106;DHT22;3083;51.508;7.966;2022-12-29T05:30:34;11.00;99.90
6106;DHT22;3083;51.508;7.966;2022-12-29T05:33:02;11.00;99.90
6106;DHT22;3083;51.508;7.966;2022-12-29T05:35:31;11.10;99.90
6106;DHT22;3083;51.508;7.966;2022-12-29T05:37:58;11.10;99.90
6106;DHT22;3083;51.508;7.966;2022-12-29T05:40:25;11.20;99.90
6106;DHT22;3083;51.508;7.966;2022-12-29T05:42:52;11.30;99.90
6106;DHT22;3083;51.508;7.966;2022-12-29T05:45:19;11.30;99.90
6106;DHT22;3083;51.508;7.966;2022-12-29T05:47:46;11.40;99.90
6106;DHT22;3083;51.508;7.966;2022-12-29T05:50:13;11.40;99.90
6106;DHT22;3083;51.508;7.966;2022-12-29T05:52:41;11.30;99.90
6106;DHT22;3083;51.508;7.966;2022-12-29T05:55:08;11.30;99.90
6106;DHT22;3083;51.508;7.966;2022-12-29T05:57:35;11.40;99.90
6106;DHT22;3083;51.508;7.966;2022-12-29T06:00:02;11.40;99.90
6106;DHT22;3083;51.508;7.966;2022-12-29T06:02:29;11.40;99.90
6106;DHT22;3083;51.508;7.966;2022-12-29T06:04:56;11.40;99.90
6106;DHT22;3083;51.508;7.966;2022-12-29T06:07:23;11.40;99.90
6106;DHT22;3083;51.508;7.966;2022-12-29T06:09:51;11.40;99.90
6106;DHT22;3083;51.508;7.966;2022-12-29T06:12:18;11.40;99.90
6106;DHT22;3083;51.508;7.966;2022-12-29T06:14:45;11.40;99.90
6106;DHT22;3083;51.508;7.966;2022-12-29T06:17:12;11.50;99.90
6106;DHT22;3083;51.508;7.966;2022-12-29T06:19:39;11.40;99.90
6106;DHT22;3083;51.508;7.966;2022-12-29T06:22:06;11.40;99.90
6106;DHT22;3083;51.508;7.966;2022-12-29T06:24:33;11.40;99.90
6106;DHT22;3083;51.508;7.966;2022-12-29T06:27:02;11.40;99.90
6106;DHT22;3083;51.508;7.966;2022-12-29T06:29:28;11.30;99.90
6106;DHT22;3083;51.508;7.966;2022-12-29T06:31:55;11.30;99.90
6106;DHT22;3083;51.508;7.966;2022-12-29T06:34:23;11.30;99.90
6106;DHT22;3083;51.508;7.966;2022-12-29T06:36:50;11.30;99.90
6106;DHT22;3083;51.508;7.966;2022-12-29T06:39:17;11.30;99.90
6106;DHT22;3083;51.508;7.966;2022-12-29T06:41:44;11.30;99.90
6106;DHT22;3083;51.508;7.966;2022-12-29T06:44:13;11.20;99.90
6106;DHT22;3083;51.508;7.966;2022-12-29T06:46:40;11.20;99.90
6106;DHT22;3083;51.508;7.966;2022-12-29T06:49:07;11.20;99.90
6106;DHT22;3083;51.508;7.966;2022-12-29T06:51:33;11.20;99.90
6106;DHT22;3083;51.508;7.966;2022-12-29T06:54:00;11.20;99.90
6106;DHT22;3083;51.508;7.966;2022-12-29T06:56:28;11.20;99.90
6106;DHT22;3083;51.508;7.966;2022-12-29T06:58:54;11.20;99.90
6106;DHT22;3083;51.508;7.966;2022-12-29T07:01:23;11.20;99.90
6106;DHT22;3083;51.508;7.966;2022-12-29T07:03:50;11.10;99.90
6106;DHT22;3083;51.508;7.966;2022-12-29T07:06:16;11.10;99.90
6106;DHT22;3083;51.508;7.966;2022-12-29T07:08:43;11.10;99.90
6106;DHT22;3083;51.508;7.966;2022-12-29T07:11:10;11.10;99.90
6106;DHT22;3083;51.508;7.966;2022-12-29T07:13:37;11.10;99.90
6106;DHT22;3083;51.508;7.966;2022-12-29T07:16:08;11.10;99.90
6106;DHT22;3083;51.508;7.966;2022-12-29T07:18:36;11.10;99.90
6106;DHT22;3083;51.508;7.966;2022-12-29T07:21:03;11.10;99.90
6106;DHT22;3083;51.508;7.966;2022-12-29T07:23:31;11.10;99.90
6106;DHT22;3083;51.508;7.966;2022-12-29T07:26:01;11.10;99.90
6106;DHT22;3083;51.508;7.966;2022-12-29T07:28:28;11.10;99.90
6106;DHT22;3083;51.508;7.966;2022-12-29T07:30:55;11.10;99.90
6106;DHT22;3083;51.508;7.966;2022-12-29T07:33:22;11.00;99.90
6106;DHT22;3083;51.508;7.966;2022-12-29T07:35:51;11.00;99.90
6106;DHT22;3083;51.508;7.966;2022-12-29T07:38:18;11.00;99.90
6106;DHT22;3083;51.508;7.966;2022-12-29T07:40:45;11.00;99.90
6106;DHT22;3083;51.508;7.966;2022-12-29T07:43:12;10.90;99.90
6106;DHT22;3083;51.508;7.966;2022-12-29T07:45:39;10.90;99.90
6106;DHT22;3083;51.508;7.966;2022-12-29T07:48:06;10.80;99.90
6106;DHT22;3083;51.508;7.966;2022-12-29T07:50:34;10.80;99.90
6106;DHT22;3083;51.508;7.966;2022-12-29T07:53:02;10.80;99.90
6106;DHT22;3083;51.508;7.966;2022-12-29T07:55:29;10.70;99.90
6106;DHT22;3083;51.508;7.966;2022-12-29T07:57:56;10.60;99.90
6106;DHT22;3083;51.508;7.966;2022-12-29T08:00:23;10.60;99.90
6106;DHT22;3083;51.508;7.966;2022-12-29T08:02:50;10.50;99.90
6106;DHT22;3083;51.508;7.966;2022-12-29T08:05:17;10.40;99.90
6106;DHT22;3083;51.508;7.966;2022-12-29T08:07:45;10.30;99.90
6106;DHT22;3083;51.508;7.966;2022-12-29T08:10:14;10.20;99.90
6106;DHT22;3083;51.508;7.966;2022-12-29T08:12:41;10.10;99.90
6106;DHT22;3083;51.508;7.966;2022-12-29T08:15:10;10.10;99.90
6106;DHT22;3083;51.508;7.966;2022-12-29T08:17:38;10.10;99.90
6106;DHT22;3083;51.508;7.966;2022-12-29T08:20:06;10.10;99.90
6106;DHT22;3083;51.508;7.966;2022-12-29T08:22:33;10.10;99.90
6106;DHT22;3083;51.508;7.966;2022-12-29T08:24:59;10.00;99.90
6106;DHT22;3083;51.508;7.966;2022-12-29T08:27:28;10.00;99.90
6106;DHT22;3083;51.508;7.966;2022-12-29T08:29:55;10.00;99.90
6106;DHT22;3083;51.508;7.966;2022-12-29T08:32:22;9.90;99.90
6106;DHT22;3083;51.508;7.966;2022-12-29T08:34:49;10.00;99.90
6106;DHT22;3083;51.508;7.966;2022-12-29T08:37:16;10.00;99.90
6106;DHT22;3083;51.508;7.966;2022-12-29T08:39:42;10.00;99.90
6106;DHT22;3083;51.508;7.966;2022-12-29T08:42:09;10.00;99.90
6106;DHT22;3083;51.508;7.966;2022-12-29T08:44:38;10.00;99.90
6106;DHT22;3083;51.508;7.966;2022-12-29T08:47:05;10.10;99.90
6106;DHT22;3083;51.508;7.966;2022-12-29T08:49:31;10.10;99.90
6106;DHT22;3083;51.508;7.966;2022-12-29T08:51:58;10.10;99.90
6106;DHT22;3083;51.508;7.966;2022-12-29T08:54:25;10.20;99.90
6106;DHT22;3083;51.508;7.966;2022-12-29T08:56:52;10.30;99.90
6106;DHT22;3083;51.508;7.966;2022-12-29T08:59:19;10.30;99.90
6106;DHT22;3083;51.508;7.966;2022-12-29T09:01:47;10.30;99.90
6106;DHT22;3083;51.508;7.966;2022-12-29T09:04:14;10.40;99.90
6106;DHT22;3083;51.508;7.966;2022-12-29T09:06:41;10.50;99.90
6106;DHT22;3083;51.508;7.966;2022-12-29T09:09:08;10.50;99.90
6106;DHT22;3083;51.508;7.966;2022-12-29T09:11:36;10.50;99.90
6106;DHT22;3083;51.508;7.966;2022-12-29T09:14:02;10.50;99.90
6106;DHT22;3083;51.508;7.966;2022-12-29T09:16:29;10.50;99.90
6106;DHT22;3083;51.508;7.966;2022-12-29T09:18:58;10.50;99.90
6106;DHT22;3083;51.508;7.966;2022-12-29T09:21:25;10.50;99.90
6106;DHT22;3083;51.508;7.966;2022-12-29T09:23:52;10.50;99.90
6106;DHT22;3083;51.508;7.966;2022-12-29T09:26:19;10.60;99.90
6106;DHT22;3083;51.508;7.966;2022-12-29T09:28:45;10.60;99.90
6106;DHT22;3083;51.508;7.966;2022-12-29T09:31:13;10.60;99.90
6106;DHT22;3083;51.508;7.966;2022-12-29T09:33:40;10.70;99.90
6106;DHT22;3083;51.508;7.966;2022-12-29T09:36:09;10.70;99.90
6106;DHT22;3083;51.508;7.966;2022-12-29T09:38:36;10.70;99.90
6106;DHT22;3083;51.508;7.966;2022-12-29T09:41:10;10.70;99.90
6106;DHT22;3083;51.508;7.966;2022-12-29T09:43:59;10.70;99.90
6106;DHT22;3083;51.508;7.966;2022-12-29T09:46:33;10.60;99.90
6106;DHT22;3083;51.508;7.966;2022-12-29T09:49:08;10.50;99.90
6106;DHT22;3083;51.508;7.966;2022-12-29T09:51:42;10.40;99.90
6106;DHT22;3083;51.508;7.966;2022-12-29T09:54:23;10.20;99.90
6106;DHT22;3083;51.508;7.966;2022-12-29T09:56:52;9.90;99.90
6106;DHT22;3083;51.508;7.966;2022-12-29T09:59:21;9.80;99.90
6106;DHT22;3083;51.508;7.966;2022-12-29T10:01:53;9.70;99.90
6106;DHT22;3083;51.508;7.966;2022-12-29T10:04:22;9.60;99.90
6106;DHT22;3083;51.508;7.966;2022-12-29T10:06:56;9.60;99.90
6106;DHT22;3083;51.508;7.966;2022-12-29T10:09:29;9.60;99.90
6106;DHT22;3083;51.508;7.966;2022-12-29T10:12:11;9.80;99.90
6106;DHT22;3083;51.508;7.966;2022-12-29T10:14:55;9.90;99.90
6106;DHT22;3083;51.508;7.966;2022-12-29T10:17:29;10.10;99.90
6106;DHT22;3083;51.508;7.966;2022-12-29T10:20:24;10.20;99.90
6106;DHT22;3083;51.508;7.966;2022-12-29T10:23:16;10.30;99.90
6106;DHT22;3083;51.508;7.966;2022-12-29T10:25:44;10.40;99.90
6106;DHT22;3083;51.508;7.966;2022-12-29T10:28:19;10.50;99.90
6106;DHT22;3083;51.508;7.966;2022-12-29T10:30:47;10.50;99.90
6106;DHT22;3083;51.508;7.966;2022-12-29T10:33:17;10.60;99.90
6106;DHT22;3083;51.508;7.966;2022-12-29T10:35:47;10.60;99.90
6106;DHT22;3083;51.508;7.966;2022-12-29T10:38:23;10.60;99.90
6106;DHT22;3083;51.508;7.966;2022-12-29T10:40:54;10.60;99.90
6106;DHT22;3083;51.508;7.966;2022-12-29T10:43:26;10.60;99.90
6106;DHT22;3083;51.508;7.966;2022-12-29T10:45:56;10.60;99.90
6106;DHT22;3083;51.508;7.966;2022-12-29T10:48:27;10.60;99.90
6106;DHT22;3083;51.508;7.966;2022-12-29T10:50:57;10.60;99.90
6106;DHT22;3083;51.508;7.966;2022-12-29T10:53:32;10.60;99.90
6106;DHT22;3083;51.508;7.966;2022-12-29T10:56:02;10.60;99.90
6106;DHT22;3083;51.508;7.966;2022-12-29T10:58:31;10.60;99.90
6106;DHT22;3083;51.508;7.966;2022-12-29T11:00:58;10.70;99.90
6106;DHT22;3083;51.508;7.966;2022-12-29T11:03:47;10.80;99.90
6106;DHT22;3083;51.508;7.966;2022-12-29T11:06:21;10.80;99.90
6106;DHT22;3083;51.508;7.966;2022-12-29T11:08:55;10.90;99.90
6106;DHT22;3083;51.508;7.966;2022-12-29T11:11:25;10.90;99.90
6106;DHT22;3083;51.508;7.966;2022-12-29T11:13:57;10.90;99.90
6106;DHT22;3083;51.508;7.966;2022-12-29T11:16:30;10.90;99.90
6106;DHT22;3083;51.508;7.966;2022-12-29T11:18:57;10.90;99.90
6106;DHT22;3083;51.508;7.966;2022-12-29T11:21:27;10.90;99.90
6106;DHT22;3083;51.508;7.966;2022-12-29T11:23:59;10.90;99.90
6106;DHT22;3083;51.508;7.966;2022-12-29T11:26:27;11.00;99.90
6106;DHT22;3083;51.508;7.966;2022-12-29T11:31:59;11.00;99.90
6106;DHT22;3083;51.508;7.966;2022-12-29T11:34:36;11.00;99.90
6106;DHT22;3083;51.508;7.966;2022-12-29T11:37:05;10.90;99.90
6106;DHT22;3083;51.508;7.966;2022-12-29T11:39:38;11.00;99.90
6106;DHT22;3083;51.508;7.966;2022-12-29T11:42:12;10.90;99.90
6106;DHT22;3083;51.508;7.966;2022-12-29T11:44:43;10.90;99.90
6106;DHT22;3083;51.508;7.966;2022-12-29T11:47:20;10.80;99.90
6106;DHT22;3083;51.508;7.966;2022-12-29T11:49:50;10.80;99.90
6106;DHT22;3083;51.508;7.966;2022-12-29T11:52:21;10.80;99.90
6106;DHT22;3083;51.508;7.966;2022-12-29T11:54:50;10.80;99.90
6106;DHT22;3083;51.508;7.966;2022-12-29T11:57:19;10.80;99.90
6106;DHT22;3083;51.508;7.966;2022-12-29T11:59:50;10.80;99.90
6106;DHT22;3083;51.508;7.966;2022-12-29T12:05:14;10.80;99.90
6106;DHT22;3083;51.508;7.966;2022-12-29T12:07:46;10.80;99.90
6106;DHT22;3083;51.508;7.966;2022-12-29T12:10:20;10.80;99.90
6106;DHT22;3083;51.508;7.966;2022-12-29T12:12:52;10.80;99.90
6106;DHT22;3083;51.508;7.966;2022-12-29T12:15:24;10.80;99.90
6106;DHT22;3083;51.508;7.966;2022-12-29T12:17:55;10.80;99.90
6106;DHT22;3083;51.508;7.966;2022-12-29T12:20:32;10.80;99.90
6106;DHT22;3083;51.508;7.966;2022-12-29T12:23:07;10.80;99.90
6106;DHT22;3083;51.508;7.966;2022-12-29T12:25:45;10.80;99.90
6106;DHT22;3083;51.508;7.966;2022-12-29T12:28:20;10.80;99.90
6106;DHT22;3083;51.508;7.966;2022-12-29T12:30:50;10.80;99.90
6106;DHT22;3083;51.508;7.966;2022-12-29T12:33:24;10.80;99.90
6106;DHT22;3083;51.508;7.966;2022-12-29T12:36:14;10.80;99.90
6106;DHT22;3083;51.508;7.966;2022-12-29T12:38:51;10.80;99.90
6106;DHT22;3083;51.508;7.966;2022-12-29T12:41:29;10.90;99.90
6106;DHT22;3083;51.508;7.966;2022-12-29T12:44:01;10.90;99.90
6106;DHT22;3083;51.508;7.966;2022-12-29T12:46:47;10.90;99.90
6106;DHT22;3083;51.508;7.966;2022-12-29T12:49:30;10.80;99.90
6106;DHT22;3083;51.508;7.966;2022-12-29T12:52:08;10.80;99.90
6106;DHT22;3083;51.508;7.966;2022-12-29T12:54:53;10.80;99.90
6106;DHT22;3083;51.508;7.966;2022-12-29T12:57:31;10.80;99.90
6106;DHT22;3083;51.508;7.966;2022-12-29T13:00:03;10.80;99.90
6106;DHT22;3083;51.508;7.966;2022-12-29T13:02:40;10.80;99.90
6106;DHT22;3083;51.508;7.966;2022-12-29T13:05:22;10.70;99.90
6106;DHT22;3083;51.508;7.966;2022-12-29T13:07:59;10.70;99.90
6106;DHT22;3083;51.508;7.966;2022-12-29T13:10:39;10.70;99.90
6106;DHT22;3083;51.508;7.966;2022-12-29T13:13:33;10.70;99.90
6106;DHT22;3083;51.508;7.966;2022-12-29T13:16:08;10.60;99.90
6106;DHT22;3083;51.508;7.966;2022-12-29T13:18:46;10.70;99.90
6106;DHT22;3083;51.508;7.966;2022-12-29T13:21:24;10.60;99.90
6106;DHT22;3083;51.508;7.966;2022-12-29T13:23:59;10.60;99.90
6106;DHT22;3083;51.508;7.966;2022-12-29T13:26:32;10.60;99.90
6106;DHT22;3083;51.508;7.966;2022-12-29T13:29:14;10.60;99.90
6106;DHT22;3083;51.508;7.966;2022-12-29T13:31:50;10.50;99.90
6106;DHT22;3083;51.508;7.966;2022-12-29T13:34:27;10.50;99.90
6106;DHT22;3083;51.508;7.966;2022-12-29T13:36:59;10.50;99.90
6106;DHT22;3083;51.508;7.966;2022-12-29T13:39:28;10.50;99.90
6106;DHT22;3083;51.508;7.966;2022-12-29T13:41:59;10.50;99.90
6106;DHT22;3083;51.508;7.966;2022-12-29T13:44:32;10.50;99.90
6106;DHT22;3083;51.508;7.966;2022-12-29T13:47:04;10.40;99.90
6106;DHT22;3083;51.508;7.966;2022-12-29T13:49:33;10.40;99.90
6106;DHT22;3083;51.508;7.966;2022-12-29T13:52:09;10.40;99.90
6106;DHT22;3083;51.508;7.966;2022-12-29T13:54:43;10.40;99.90
6106;DHT22;3083;51.508;7.966;2022-12-29T13:57:28;10.40;99.90
6106;DHT22;3083;51.508;7.966;2022-12-29T14:00:03;10.40;99.90
6106;DHT22;3083;51.508;7.966;2022-12-29T14:02:36;10.30;99.90
6106;DHT22;3083;51.508;7.966;2022-12-29T14:05:29;10.30;99.90
6106;DHT22;3083;51.508;7.966;2022-12-29T14:08:00;10.30;99.90
6106;DHT22;3083;51.508;7.966;2022-12-29T14:10:30;10.30;99.90
6106;DHT22;3083;51.508;7.966;2022-12-29T14:13:03;10.30;99.90
6106;DHT22;3083;51.508;7.966;2022-12-29T14:15:37;10.30;99.90
6106;DHT22;3083;51.508;7.966;2022-12-29T14:18:15;10.20;99.90
6106;DHT22;3083;51.508;7.966;2022-12-29T14:20:54;10.20;99.90
6106;DHT22;3083;51.508;7.966;2022-12-29T14:23:28;10.30;99.90
6106;DHT22;3083;51.508;7.966;2022-12-29T14:26:11;10.30;99.90
6106;DHT22;3083;51.508;7.966;2022-12-29T14:28:39;10.30;99.90
6106;DHT22;3083;51.508;7.966;2022-12-29T14:31:36;10.30;99.90
6106;DHT22;3083;51.508;7.966;2022-12-29T14:34:36;10.20;99.90
6106;DHT22;3083;51.508;7.966;2022-12-29T14:37:23;10.30;99.90
6106;DHT22;3083;51.508;7.966;2022-12-29T14:40:03;10.30;99.90
6106;DHT22;3083;51.508;7.966;2022-12-29T14:42:31;10.30;99.90
6106;DHT22;3083;51.508;7.966;2022-12-29T14:45:02;10.20;99.90
6106;DHT22;3083;51.508;7.966;2022-12-29T14:47:35;10.20;99.90
6106;DHT22;3083;51.508;7.966;2022-12-29T14:50:04;10.20;99.90
6106;DHT22;3083;51.508;7.966;2022-12-29T14:52:32;10.20;99.90
6106;DHT22;3083;51.508;7.966;2022-12-29T14:55:30;10.20;99.90
6106;DHT22;3083;51.508;7.966;2022-12-29T14:58:00;10.20;99.90
6106;DHT22;3083;51.508;7.966;2022-12-29T15:00:30;10.20;99.90
6106;DHT22;3083;51.508;7.966;2022-12-29T15:03:05;10.20;99.90
6106;DHT22;3083;51.508;7.966;2022-12-29T15:05:36;10.10;99.90
6106;DHT22;3083;51.508;7.966;2022-12-29T15:08:05;10.10;99.90
6106;DHT22;3083;51.508;7.966;2022-12-29T15:10:38;10.10;99.90
6106;DHT22;3083;51.508;7.966;2022-12-29T15:13:15;10.10;99.90
6106;DHT22;3083;51.508;7.966;2022-12-29T15:15:42;10.10;99.90
6106;DHT22;3083;51.508;7.966;2022-12-29T15:18:22;10.20;99.90
6106;DHT22;3083;51.508;7.966;2022-12-29T15:20:51;10.20;99.90
6106;DHT22;3083;51.508;7.966;2022-12-29T15:23:19;10.20;99.90
6106;DHT22;3083;51.508;7.966;2022-12-29T15:25:49;10.20;99.90
6106;DHT22;3083;51.508;7.966;2022-12-29T15:28:17;10.20;99.90
6106;DHT22;3083;51.508;7.966;2022-12-29T15:30:51;10.10;99.90
6106;DHT22;3083;51.508;7.966;2022-12-29T15:33:21;10.10;99.90
6106;DHT22;3083;51.508;7.966;2022-12-29T15:35:50;10.10;99.90
6106;DHT22;3083;51.508;7.966;2022-12-29T15:38:22;10.10;99.90
6106;DHT22;3083;51.508;7.966;2022-12-29T15:40:53;10.10;99.90
6106;DHT22;3083;51.508;7.966;2022-12-29T15:43:28;10.10;99.90
6106;DHT22;3083;51.508;7.966;2022-12-29T15:45:57;10.10;99.90
6106;DHT22;3083;51.508;7.966;2022-12-29T15:48:25;10.10;99.90
6106;DHT22;3083;51.508;7.966;2022-12-29T15:50:52;10.10;99.90
6106;DHT22;3083;51.508;7.966;2022-12-29T15:53:23;10.00;99.90
6106;DHT22;3083;51.508;7.966;2022-12-29T15:55:55;10.00;99.90
6106;DHT22;3083;51.508;7.966;2022-12-29T15:58:24;10.00;99.90
6106;DHT22;3083;51.508;7.966;2022-12-29T16:00:53;10.00;99.90
6106;DHT22;3083;51.508;7.966;2022-12-29T16:03:21;10.00;99.90
6106;DHT22;3083;51.508;7.966;2022-12-29T16:05:53;9.90;99.90
6106;DHT22;3083;51.508;7.966;2022-12-29T16:08:28;9.90;99.90
6106;DHT22;3083;51.508;7.966;2022-12-29T16:10:58;10.00;99.90
6106;DHT22;3083;51.508;7.966;2022-12-29T16:13:28;9.90;99.90
6106;DHT22;3083;51.508;7.966;2022-12-29T16:16:01;9.90;99.90
6106;DHT22;3083;51.508;7.966;2022-12-29T16:18:30;9.90;99.90
6106;DHT22;3083;51.508;7.966;2022-12-29T16:21:02;9.90;99.90
6106;DHT22;3083;51.508;7.966;2022-12-29T16:23:31;9.90;99.90
6106;DHT22;3083;51.508;7.966;2022-12-29T16:25:59;9.80;99.90
6106;DHT22;3083;51.508;7.966;2022-12-29T16:28:34;9.80;99.90
6106;DHT22;3083;51.508;7.966;2022-12-29T16:31:03;9.80;99.90
6106;DHT22;3083;51.508;7.966;2022-12-29T16:33:39;9.80;99.90
6106;DHT22;3083;51.508;7.966;2022-12-29T16:36:30;9.80;99.90
6106;DHT22;3083;51.508;7.966;2022-12-29T16:42:33;9.80;99.90
6106;DHT22;3083;51.508;7.966;2022-12-29T16:48:17;9.80;99.90